イスタンブル の空港の天気 - METARとTAF

アタテュルク国際空港(イスタンブル) ( LTBA / IST ) - トルコ イスタンブル
飛行場実況気象(Metar)
観測時間05/29 19:50 EET (05/29 16:50 UTC)
風向・風速西南西 3m/s
視程10km以上
天気現象
少しの雲 雲底高度 1070m
全天の8割程度の雲 雲底高度 3050m
気温17℃
湿度72%
気圧1015hPa
METARLTBA 291650Z 25006KT 9999 FEW035 BKN100 17/12 Q1015 NOSIG RMK RWY17L 23007KT RWY05 27007KT RWY23 26010KT
過去の天気等 Google飛行場航空写真 Wunderground天気予報

過去48時間のMETAR

飛行場予報(TAF)
発表時間: 5/29 13:40 EET (5/29 10:40 UTC)
予報対象時間: 29日15時 EET ~ 30日21時 EET
風向・風速西南西 5m/s
視程10km以上
全天の4割程度の雲 雲底高度 1070m
全天の8割程度の雲 雲底高度 2740m
29日15時 EET ~ 29日18時 EET に一時的に
天気現象弱い雷雨
少しの積乱雲 雲底高度 670m
全天の8割程度の雲 雲底高度 910m
29日19時 EET ~ 29日22時 EET に徐々に
視程10km以上
なし
30日2時 EET ~ 30日5時 EET に徐々に
全天の4割程度の雲 雲底高度 1070m
全天の4割程度の雲 雲底高度 2440m
30日11時 EET ~ 30日14時 EET に 確率 30% で一時的に
天気現象弱い雷雨
少しの積乱雲 雲底高度 670m
全天の4割程度の雲 雲底高度 2440m
30日15時 EET ~ 30日18時 EET に徐々に
視程10km以上
なし
TAF LTBA 291040Z 2912/3018 24009KT 9999 SCT035 BKN090
TEMPO 2912/2915 -TSRA FEW022CB BKN030
BECMG 2916/2919 CAVOK
BECMG 2923/3002 SCT035 SCT080
PROB30 TEMPO 3008/3011 -TSRA FEW022CB SCT080
BECMG 3012/3015 CAVOK